createdAt,value
2019-02-21T00:00:56.841Z,1.53
2019-02-21T00:03:28.803Z,1.51
2019-02-21T00:05:59.088Z,1.43
2019-02-21T00:08:33.324Z,1.41
2019-02-21T00:11:03.710Z,1.39
2019-02-21T00:13:34.073Z,1.33
2019-02-21T00:16:04.320Z,1.29
2019-02-21T00:18:34.551Z,1.22
2019-02-21T00:21:05.017Z,1.19
2019-02-21T00:23:35.433Z,1.22
2019-02-21T00:26:05.657Z,1.23
2019-02-21T00:28:35.941Z,1.21
2019-02-21T00:31:06.421Z,1.15
2019-02-21T00:33:36.769Z,1.04
2019-02-21T00:36:07.112Z,1.00
2019-02-21T00:38:37.720Z,1.00
2019-02-21T00:41:07.899Z,0.94
2019-02-21T00:43:38.124Z,0.86
2019-02-21T00:46:08.522Z,0.80
2019-02-21T00:48:38.654Z,0.72
2019-02-21T00:51:08.778Z,0.68
2019-02-21T00:53:39.994Z,0.65
2019-02-21T00:56:10.358Z,0.62
2019-02-21T00:58:41.063Z,0.57
2019-02-21T01:01:11.271Z,0.51
2019-02-21T01:03:41.694Z,0.47
2019-02-21T01:06:11.970Z,0.47
2019-02-21T01:08:42.178Z,0.41
2019-02-21T01:11:12.382Z,0.43
2019-02-21T01:13:42.725Z,0.43
2019-02-21T01:16:13.011Z,0.42
2019-02-21T01:18:43.664Z,0.39
2019-02-21T01:21:13.915Z,0.37
2019-02-21T01:23:44.323Z,0.39
2019-02-21T01:26:14.467Z,0.38
2019-02-21T01:28:44.899Z,0.37
2019-02-21T01:31:15.135Z,0.34
2019-02-21T01:33:45.664Z,0.33
2019-02-21T01:36:16.190Z,0.29
2019-02-21T01:38:46.479Z,0.28
2019-02-21T01:41:16.685Z,0.28
2019-02-21T01:43:46.778Z,0.27
2019-02-21T01:46:17.082Z,0.20
2019-02-21T01:48:47.219Z,0.18
2019-02-21T01:51:17.479Z,0.17
2019-02-21T01:53:47.815Z,0.12
2019-02-21T01:56:19.018Z,0.09
2019-02-21T01:58:50.586Z,0.08
2019-02-21T02:01:21.087Z,0.07
2019-02-21T02:03:51.314Z,0.02
2019-02-21T02:06:21.760Z,-0.01
2019-02-21T02:08:51.997Z,-0.02
2019-02-21T02:11:22.118Z,-0.11
2019-02-21T02:13:52.251Z,-0.17
2019-02-21T02:16:22.453Z,-0.17
2019-02-21T02:18:52.617Z,-0.24
2019-02-21T02:21:22.868Z,-0.25
2019-02-21T02:23:53.183Z,-0.25
2019-02-21T02:26:23.325Z,-0.27
2019-02-21T02:28:53.483Z,-0.30
2019-02-21T02:31:23.982Z,-0.33
2019-02-21T02:33:54.689Z,-0.37
2019-02-21T02:36:24.919Z,-0.39
2019-02-21T02:38:55.148Z,-0.40
2019-02-21T02:41:25.384Z,-0.38
2019-02-21T02:43:55.671Z,-0.32
2019-02-21T02:46:25.933Z,-0.28
2019-02-21T02:48:56.078Z,-0.27
2019-02-21T02:51:26.359Z,-0.29
2019-02-21T02:53:56.933Z,-0.31
2019-02-21T02:56:27.257Z,-0.32
2019-02-21T02:58:57.414Z,-0.33
2019-02-21T03:01:34.693Z,-0.31
2019-02-21T03:04:00.124Z,-0.29
2019-02-21T03:06:30.278Z,-0.29
2019-02-21T03:09:00.541Z,-0.30
2019-02-21T03:11:32.350Z,-0.27
2019-02-21T03:14:02.629Z,-0.30
2019-02-21T03:16:32.979Z,-0.34
2019-02-21T03:19:03.127Z,-0.40
2019-02-21T03:21:33.368Z,-0.49
2019-02-21T03:24:04.681Z,-0.51
2019-02-21T03:26:34.848Z,-0.49
2019-02-21T03:29:05.124Z,-0.57
2019-02-21T03:31:52.688Z,-0.57
2019-02-21T03:34:07.108Z,-0.57
2019-02-21T03:36:37.435Z,-0.62
2019-02-21T03:39:09.658Z,-0.64
2019-02-21T03:41:40.066Z,-0.63
2019-02-21T03:44:10.642Z,-0.64
2019-02-21T03:46:41.001Z,-0.62
2019-02-21T03:49:11.368Z,-0.62
2019-02-21T03:51:41.705Z,-0.63
2019-02-21T03:54:11.849Z,-0.62
2019-02-21T03:56:42.549Z,-0.64
2019-02-21T03:59:13.002Z,-0.65
2019-02-21T04:01:43.629Z,-0.60
2019-02-21T04:04:14.092Z,-0.56
2019-02-21T04:06:44.522Z,-0.53
2019-02-21T04:09:14.771Z,-0.50
2019-02-21T04:11:45.109Z,-0.48
2019-02-21T04:14:15.414Z,-0.46
2019-02-21T04:16:45.610Z,-0.45
2019-02-21T04:19:15.759Z,-0.50
2019-02-21T04:21:46.900Z,-0.54
2019-02-21T04:24:17.128Z,-0.56
2019-02-21T04:26:47.316Z,-0.66
2019-02-21T04:29:17.520Z,-0.70
2019-02-21T04:31:47.818Z,-0.76
2019-02-21T04:34:18.533Z,-0.78
2019-02-21T04:36:48.885Z,-0.80
2019-02-21T04:39:19.293Z,-0.83
2019-02-21T04:41:49.581Z,-0.86
2019-02-21T04:44:19.739Z,-0.89
2019-02-21T04:46:49.879Z,-0.87
2019-02-21T04:49:20.031Z,-0.90
2019-02-21T04:51:50.367Z,-0.94
2019-02-21T04:54:20.647Z,-1.02
2019-02-21T04:56:50.834Z,-1.08
2019-02-21T04:59:20.958Z,-1.09
2019-02-21T05:01:51.109Z,-1.11
2019-02-21T05:04:21.393Z,-1.13
2019-02-21T05:06:51.715Z,-1.16
2019-02-21T05:09:22.218Z,-1.19
2019-02-21T05:11:52.678Z,-1.21
2019-02-21T05:14:23.009Z,-1.22
2019-02-21T05:16:53.289Z,-1.20
2019-02-21T05:19:23.408Z,-1.18
2019-02-21T05:21:53.547Z,-1.14
2019-02-21T05:24:23.754Z,-1.18
2019-02-21T05:26:58.203Z,-1.21
2019-02-21T05:29:28.776Z,-1.22
2019-02-21T05:32:08.943Z,-1.24
2019-02-21T05:34:46.992Z,-1.27
2019-02-21T05:37:28.600Z,-1.28
2019-02-21T05:40:17.790Z,-1.32
2019-02-21T05:43:16.187Z,-1.39
2019-02-21T05:46:11.307Z,-1.39
2019-02-21T05:49:12.702Z,-1.38
2019-02-21T05:52:05.377Z,-1.37
2019-02-21T05:54:40.813Z,-1.38
2019-02-21T05:57:18.633Z,-1.38
2019-02-21T06:00:05.606Z,-1.35
2019-02-21T06:03:03.813Z,-1.33
2019-02-21T06:05:59.208Z,-1.38
2019-02-21T06:08:48.174Z,-1.43
2019-02-21T06:11:40.591Z,-1.43
2019-02-21T06:14:30.764Z,-1.45
2019-02-21T06:17:24.001Z,-1.41
2019-02-21T06:20:13.604Z,-1.49
2019-02-21T06:23:01.718Z,-1.53
2019-02-21T06:25:50.901Z,-1.56
2019-02-21T06:28:23.786Z,-1.56
2019-02-21T06:31:02.639Z,-1.59
2019-02-21T06:33:32.927Z,-1.58
2019-02-21T06:36:03.549Z,-1.60
2019-02-21T06:38:34.037Z,-1.58
2019-02-21T06:41:05.410Z,-1.53
2019-02-21T06:43:35.760Z,-1.47
2019-02-21T06:46:06.490Z,-1.43
2019-02-21T06:48:36.711Z,-1.37
2019-02-21T06:51:06.896Z,-1.27
2019-02-21T06:53:37.280Z,-1.24
2019-02-21T06:56:07.446Z,-1.12
2019-02-21T06:58:37.734Z,-1.10
2019-02-21T07:01:07.909Z,-1.10
2019-02-21T07:03:38.238Z,-1.00
2019-02-21T07:06:09.049Z,-0.95
2019-02-21T07:08:40.224Z,-0.88
2019-02-21T07:11:11.541Z,-0.81
2019-02-21T07:13:42.059Z,-0.73
2019-02-21T07:16:13.235Z,-0.67
2019-02-21T07:18:43.861Z,-0.65
2019-02-21T07:21:14.165Z,-0.59
2019-02-21T07:23:44.774Z,-0.58
2019-02-21T07:26:17.574Z,-0.41
2019-02-21T07:28:48.559Z,-0.27
2019-02-21T07:31:28.078Z,-0.17
2019-02-21T07:33:50.954Z,-0.07
2019-02-21T07:36:21.248Z,0.06
2019-02-21T07:38:51.616Z,0.16
2019-02-21T07:41:22.253Z,0.29
2019-02-21T07:43:52.663Z,0.42
2019-02-21T07:46:23.033Z,0.52
2019-02-21T07:48:53.245Z,0.66
2019-02-21T07:51:24.238Z,0.82
2019-02-21T07:53:54.597Z,0.96
2019-02-21T07:56:24.795Z,1.10
2019-02-21T07:58:57.569Z,1.29
2019-02-21T08:01:27.443Z,1.41
2019-02-21T08:03:58.329Z,1.68
2019-02-21T08:06:28.853Z,2.09
2019-02-21T08:08:59.603Z,2.42
2019-02-21T08:11:30.076Z,2.88
2019-02-21T08:14:01.425Z,3.16
2019-02-21T08:16:32.075Z,3.54
2019-02-21T08:19:02.661Z,3.90
2019-02-21T08:21:33.042Z,4.34
2019-02-21T08:24:03.674Z,4.89
2019-02-21T08:26:33.979Z,5.52
2019-02-21T08:29:06.207Z,6.70
2019-02-21T08:31:36.301Z,7.71
2019-02-21T08:34:17.311Z,8.59
2019-02-21T08:36:47.514Z,8.93
2019-02-21T08:39:17.656Z,9.05
2019-02-21T08:41:47.920Z,9.50
2019-02-21T08:44:18.314Z,10.44
2019-02-21T08:46:48.564Z,11.77
2019-02-21T08:49:19.217Z,13.15
2019-02-21T08:51:49.721Z,14.12
2019-02-21T08:54:19.971Z,13.47
2019-02-21T08:56:50.124Z,13.18
2019-02-21T08:59:20.395Z,13.45
2019-02-21T09:01:50.639Z,14.52
2019-02-21T09:04:27.272Z,15.96
2019-02-21T09:06:52.891Z,16.04
2019-02-21T09:09:23.256Z,16.04
2019-02-21T09:11:53.926Z,17.37
2019-02-21T09:14:24.326Z,18.15
2019-02-21T09:16:54.605Z,19.15
2019-02-21T09:19:24.973Z,19.71
2019-02-21T09:21:55.167Z,19.45
2019-02-21T09:24:38.443Z,20.42
2019-02-21T09:27:00.161Z,20.33
2019-02-21T09:29:29.421Z,21.00
2019-02-21T09:32:00.266Z,21.48
2019-02-21T09:34:30.665Z,21.42
2019-02-21T09:37:00.971Z,21.16
2019-02-21T09:39:31.246Z,22.03
2019-02-21T09:42:01.525Z,22.21
2019-02-21T09:44:31.899Z,22.79
2019-02-21T09:47:02.457Z,22.82
2019-02-21T09:49:32.935Z,21.77
2019-02-21T09:52:03.227Z,23.03
2019-02-21T09:54:33.395Z,21.77
2019-02-21T09:57:12.850Z,21.78
2019-02-21T09:59:36.763Z,23.44
2019-02-21T10:02:07.923Z,24.08
2019-02-21T10:04:38.225Z,25.74
2019-02-21T10:07:08.421Z,25.24
2019-02-21T10:09:38.694Z,25.68
2019-02-21T10:12:08.886Z,26.49
2019-02-21T10:14:39.132Z,25.86
2019-02-21T10:17:09.295Z,27.14
2019-02-21T10:19:39.406Z,27.15
2019-02-21T10:22:09.546Z,27.59
2019-02-21T10:24:39.894Z,26.88
2019-02-21T10:27:10.673Z,28.33
2019-02-21T10:29:40.812Z,28.33
2019-02-21T10:32:11.140Z,29.29
2019-02-21T10:34:43.303Z,28.70
2019-02-21T10:37:13.319Z,27.48
2019-02-21T10:39:43.839Z,28.24
2019-02-21T10:42:14.023Z,28.54
2019-02-21T10:44:45.371Z,27.46
2019-02-21T10:47:15.561Z,28.07
2019-02-21T10:49:45.849Z,28.95
2019-02-21T10:52:16.442Z,29.03
2019-02-21T10:54:46.726Z,29.15
2019-02-21T10:57:20.671Z,28.30
2019-02-21T10:59:51.146Z,27.23
2019-02-21T11:02:21.372Z,27.96
2019-02-21T11:04:54.849Z,27.92
2019-02-21T11:07:23.811Z,28.79
2019-02-21T11:09:53.905Z,29.13
2019-02-21T11:12:24.486Z,30.70
2019-02-21T11:14:54.929Z,31.09
2019-02-21T11:17:25.932Z,29.95
2019-02-21T11:19:57.599Z,30.00
2019-02-21T11:22:28.840Z,30.59
2019-02-21T11:24:58.970Z,30.48
2019-02-21T11:27:29.225Z,30.87
2019-02-21T11:29:59.556Z,30.24
2019-02-21T11:32:30.229Z,30.45
2019-02-21T11:35:06.425Z,31.95
2019-02-21T11:37:42.759Z,32.71
2019-02-21T11:40:06.115Z,33.62
2019-02-21T11:42:36.273Z,34.14
2019-02-21T11:45:07.392Z,34.78
2019-02-21T11:47:37.912Z,32.57
2019-02-21T11:50:09.522Z,33.79
2019-02-21T11:52:39.945Z,32.12
2019-02-21T11:55:12.816Z,35.04
2019-02-21T11:57:43.181Z,35.63
2019-02-21T12:00:17.257Z,35.56
2019-02-21T12:02:47.521Z,35.70
2019-02-21T12:05:30.184Z,33.39
2019-02-21T12:07:50.941Z,32.87
2019-02-21T12:10:22.349Z,33.47
2019-02-21T12:12:52.916Z,34.33
2019-02-21T12:15:23.420Z,34.77
2019-02-21T12:17:53.734Z,35.35
2019-02-21T12:20:24.017Z,34.66
2019-02-21T12:22:54.243Z,33.78
2019-02-21T12:25:24.573Z,35.30
2019-02-21T12:27:55.066Z,31.22
2019-02-21T12:30:25.475Z,33.10
2019-02-21T12:32:55.800Z,33.19
2019-02-21T12:35:29.907Z,32.81
2019-02-21T12:37:59.133Z,30.66
2019-02-21T12:40:30.380Z,30.30
2019-02-21T12:43:00.697Z,26.50
2019-02-21T12:45:30.999Z,26.98
2019-02-21T12:48:01.942Z,24.93
2019-02-21T12:50:43.695Z,24.55
2019-02-21T12:53:04.511Z,26.58
2019-02-21T12:55:36.154Z,26.62
2019-02-21T12:58:06.496Z,27.04
2019-02-21T13:00:37.002Z,27.04
2019-02-21T13:03:07.268Z,28.33
2019-02-21T13:05:41.567Z,26.00
2019-02-21T13:08:13.020Z,23.53
2019-02-21T13:10:43.237Z,23.40
2019-02-21T13:13:13.556Z,21.41
2019-02-21T13:15:44.025Z,22.84
2019-02-21T13:18:16.086Z,23.92
2019-02-21T13:20:46.150Z,23.92
2019-02-21T13:23:16.673Z,22.49
2019-02-21T13:25:46.825Z,22.45
2019-02-21T13:28:17.025Z,22.01
2019-02-21T13:30:47.326Z,22.83
2019-02-21T13:33:18.248Z,23.21
2019-02-21T13:35:52.605Z,23.45
2019-02-21T13:38:20.682Z,23.44
2019-02-21T13:40:51.292Z,23.88
2019-02-21T13:43:21.817Z,23.79
2019-02-21T13:45:52.119Z,23.61
2019-02-21T13:48:22.896Z,23.36
2019-02-21T13:50:53.373Z,23.48
2019-02-21T13:53:23.690Z,23.73
2019-02-21T13:55:53.892Z,23.08
2019-02-21T13:58:24.050Z,23.38
2019-02-21T14:00:54.301Z,23.68
2019-02-21T14:03:27.726Z,23.71
2019-02-21T14:06:03.512Z,24.18
2019-02-21T14:08:31.543Z,23.94
2019-02-21T14:11:01.936Z,23.89
2019-02-21T14:13:32.199Z,24.31
2019-02-21T14:16:02.471Z,23.38
2019-02-21T14:18:32.711Z,23.29
2019-02-21T14:21:03.522Z,23.32
2019-02-21T14:23:33.931Z,22.95
2019-02-21T14:26:04.629Z,22.21
2019-02-21T14:28:37.409Z,22.00
2019-02-21T14:31:07.558Z,22.03
2019-02-21T14:33:38.242Z,21.55
2019-02-21T14:36:15.495Z,21.27
2019-02-21T14:38:40.666Z,20.83
2019-02-21T14:41:10.946Z,20.33
2019-02-21T14:43:41.515Z,19.89
2019-02-21T14:46:12.075Z,19.83
2019-02-21T14:48:42.459Z,19.62
2019-02-21T14:51:12.747Z,19.63
2019-02-21T14:53:43.080Z,20.00
2019-02-21T14:56:13.402Z,19.96
2019-02-21T14:58:43.990Z,20.01
2019-02-21T15:01:14.451Z,19.82
2019-02-21T15:03:44.927Z,19.31
2019-02-21T15:06:26.482Z,19.52
2019-02-21T15:08:48.640Z,19.43
2019-02-21T15:11:19.147Z,19.12
2019-02-21T15:13:49.378Z,18.91
2019-02-21T15:16:19.733Z,19.18
2019-02-21T15:18:50.136Z,18.91
2019-02-21T15:21:20.821Z,18.20
2019-02-21T15:23:51.187Z,18.36
2019-02-21T15:26:21.634Z,18.30
2019-02-21T15:28:53.209Z,18.17
2019-02-21T15:31:23.627Z,18.01
2019-02-21T15:33:53.892Z,18.00
2019-02-21T15:36:24.267Z,17.88
2019-02-21T15:38:54.573Z,17.83
2019-02-21T15:41:24.911Z,17.68
2019-02-21T15:43:55.747Z,17.57
2019-02-21T15:46:27.125Z,17.46
2019-02-21T15:48:57.418Z,17.31
2019-02-21T15:51:27.828Z,17.18
2019-02-21T15:53:58.692Z,17.06
2019-02-21T15:56:29.284Z,16.93
2019-02-21T15:58:59.734Z,16.85
2019-02-21T16:01:30.076Z,16.69
2019-02-21T16:04:00.498Z,16.67
2019-02-21T16:06:30.700Z,16.55
2019-02-21T16:09:00.980Z,16.36
2019-02-21T16:11:32.895Z,16.24
2019-02-21T16:14:03.800Z,16.08
2019-02-21T16:16:34.268Z,15.95
2019-02-21T16:19:04.601Z,15.89
2019-02-21T16:21:34.800Z,15.79
2019-02-21T16:24:06.496Z,15.64
2019-02-21T16:26:36.920Z,15.34
2019-02-21T16:29:07.238Z,15.07
2019-02-21T16:31:37.827Z,15.01
2019-02-21T16:34:09.490Z,14.67
2019-02-21T16:36:39.774Z,14.78
2019-02-21T16:39:10.590Z,14.65
2019-02-21T16:41:40.987Z,14.46
2019-02-21T16:44:11.416Z,14.20
2019-02-21T16:46:42.106Z,13.95
2019-02-21T16:49:12.603Z,13.79
2019-02-21T16:51:42.774Z,13.57
2019-02-21T16:54:13.162Z,13.43
2019-02-21T16:56:43.343Z,13.16
2019-02-21T16:59:14.449Z,12.98
2019-02-21T17:01:44.744Z,12.76
2019-02-21T17:04:15.033Z,12.52
2019-02-21T17:06:45.794Z,12.28
2019-02-21T17:09:16.342Z,11.99
2019-02-21T17:11:46.872Z,11.95
2019-02-21T17:14:17.431Z,11.87
2019-02-21T17:16:47.810Z,11.55
2019-02-21T17:19:18.498Z,11.53
2019-02-21T17:21:48.818Z,11.35
2019-02-21T17:24:19.297Z,11.15
2019-02-21T17:26:49.722Z,11.07
2019-02-21T17:29:26.729Z,10.92
2019-02-21T17:31:57.198Z,10.65
2019-02-21T17:34:27.891Z,10.43
2019-02-21T17:36:58.301Z,10.44
2019-02-21T17:39:28.466Z,10.21
2019-02-21T17:41:58.849Z,9.89
2019-02-21T17:44:31.752Z,9.77
2019-02-21T17:47:01.742Z,9.65
2019-02-21T17:49:32.107Z,9.63
2019-02-21T17:52:04.073Z,9.61
2019-02-21T17:54:34.383Z,9.52
2019-02-21T17:57:04.789Z,9.39
2019-02-21T17:59:35.726Z,9.37
2019-02-21T18:02:06.588Z,9.34
2019-02-21T18:04:37.129Z,9.29
2019-02-21T18:07:07.902Z,9.26
2019-02-21T18:09:38.367Z,9.30
2019-02-21T18:12:08.983Z,9.13
2019-02-21T18:14:41.371Z,9.12
2019-02-21T18:17:11.915Z,8.99
2019-02-21T18:19:43.470Z,8.90
2019-02-21T18:22:14.090Z,8.87
2019-02-21T18:24:44.724Z,8.81
2019-02-21T18:27:15.579Z,8.78
2019-02-21T18:29:46.908Z,8.74
2019-02-21T18:32:17.430Z,8.67
2019-02-21T18:34:49.570Z,8.65
2019-02-21T18:37:20.401Z,8.72
2019-02-21T18:39:50.811Z,8.74
2019-02-21T18:42:21.698Z,8.72
2019-02-21T18:44:52.094Z,8.72
2019-02-21T18:47:22.730Z,8.68
2019-02-21T18:49:53.326Z,8.65
2019-02-21T18:52:23.838Z,8.62
2019-02-21T18:54:54.643Z,8.56
2019-02-21T18:57:25.447Z,8.54
2019-02-21T18:59:56.296Z,8.52
2019-02-21T19:02:27.369Z,8.46
2019-02-21T19:04:58.414Z,8.38
2019-02-21T19:07:29.097Z,8.27
2019-02-21T19:09:59.886Z,8.20
2019-02-21T19:12:30.534Z,8.16
2019-02-21T19:15:01.237Z,8.12
2019-02-21T19:17:31.829Z,8.06
2019-02-21T19:20:02.485Z,8.04
2019-02-21T19:22:33.376Z,8.06
2019-02-21T19:25:03.950Z,8.12
2019-02-21T19:27:37.522Z,8.18
2019-02-21T19:30:14.177Z,8.16
2019-02-21T19:32:44.880Z,8.19
2019-02-21T19:35:16.039Z,8.21
2019-02-21T19:37:46.473Z,8.25
2019-02-21T19:40:17.286Z,8.23
2019-02-21T19:42:47.985Z,8.18
2019-02-21T19:45:18.782Z,8.15
2019-02-21T19:47:49.454Z,8.14
2019-02-21T19:50:19.760Z,8.17
2019-02-21T19:52:50.834Z,8.20
2019-02-21T19:55:21.994Z,8.21
2019-02-21T19:57:52.655Z,8.16
2019-02-21T20:00:24.585Z,8.11
2019-02-21T20:02:55.606Z,8.13
2019-02-21T20:05:26.429Z,8.18
2019-02-21T20:08:07.837Z,8.15
2019-02-21T20:10:29.540Z,8.14
2019-02-21T20:13:01.672Z,8.12
2019-02-21T20:15:32.493Z,8.05
2019-02-21T20:18:03.558Z,7.97
2019-02-21T20:20:34.387Z,7.92
2019-02-21T20:23:04.789Z,7.97
2019-02-21T20:25:36.571Z,8.03
2019-02-21T20:28:08.377Z,8.06
2019-02-21T20:30:39.080Z,8.06
2019-02-21T20:33:10.004Z,8.06
2019-02-21T20:35:40.836Z,8.03
2019-02-21T20:38:12.333Z,8.03
2019-02-21T20:40:42.843Z,8.04
2019-02-21T20:43:13.374Z,8.00
2019-02-21T20:45:52.526Z,8.00
2019-02-21T20:48:16.424Z,7.99
2019-02-21T20:50:56.385Z,7.93
2019-02-21T20:53:18.899Z,7.89
2019-02-21T20:55:49.132Z,7.89
2019-02-21T20:58:19.465Z,7.90
2019-02-21T21:00:50.504Z,7.89
2019-02-21T21:03:21.227Z,7.83
2019-02-21T21:05:51.885Z,7.83
2019-02-21T21:08:22.787Z,7.82
2019-02-21T21:10:53.128Z,7.81
2019-02-21T21:13:23.553Z,7.79
2019-02-21T21:15:53.885Z,7.80
2019-02-21T21:18:24.938Z,7.74
2019-02-21T21:20:55.592Z,7.76
2019-02-21T21:23:26.004Z,7.80
2019-02-21T21:25:56.450Z,7.81
2019-02-21T21:28:27.329Z,7.81
2019-02-21T21:30:57.709Z,7.84
2019-02-21T21:33:27.951Z,7.83
2019-02-21T21:35:58.138Z,7.83
2019-02-21T21:38:29.019Z,7.81
2019-02-21T21:41:01.333Z,7.81
2019-02-21T21:43:31.779Z,7.82
2019-02-21T21:46:02.337Z,7.82
2019-02-21T21:48:32.909Z,7.83
2019-02-21T21:51:03.304Z,7.82
2019-02-21T21:53:33.654Z,7.79
2019-02-21T21:56:04.446Z,7.79
2019-02-21T21:58:34.825Z,7.82
2019-02-21T22:01:05.131Z,7.79
2019-02-21T22:03:35.694Z,7.79
2019-02-21T22:06:06.115Z,7.78
2019-02-21T22:08:39.104Z,7.77
2019-02-21T22:11:10.210Z,7.76
2019-02-21T22:13:40.737Z,7.77
2019-02-21T22:16:11.484Z,7.82
2019-02-21T22:18:41.955Z,7.83
2019-02-21T22:21:12.397Z,7.82
2019-02-21T22:23:43.273Z,7.80
2019-02-21T22:26:13.549Z,7.80
2019-02-21T22:28:44.115Z,7.77
2019-02-21T22:31:14.627Z,7.68
2019-02-21T22:33:46.139Z,7.76
2019-02-21T22:36:16.488Z,7.78
2019-02-21T22:38:46.656Z,7.79
2019-02-21T22:41:16.992Z,7.77
2019-02-21T22:43:47.143Z,7.74
2019-02-21T22:46:17.491Z,7.75
2019-02-21T22:48:47.659Z,7.79
2019-02-21T22:51:17.799Z,7.82
2019-02-21T22:53:48.163Z,7.81
2019-02-21T22:56:18.369Z,7.77
2019-02-21T22:58:48.982Z,7.77
2019-02-21T23:01:36.724Z,7.75
2019-02-21T23:04:23.398Z,7.75
2019-02-21T23:07:03.801Z,7.74
2019-02-21T23:09:33.975Z,7.72
2019-02-21T23:12:04.274Z,7.68
2019-02-21T23:14:35.152Z,7.71
2019-02-21T23:17:05.978Z,7.72
2019-02-21T23:19:37.167Z,7.70
2019-02-21T23:22:07.604Z,7.71
2019-02-21T23:24:38.725Z,7.72
2019-02-21T23:27:09.088Z,7.67
2019-02-21T23:29:39.384Z,7.67
2019-02-21T23:32:09.605Z,7.70
2019-02-21T23:34:42.928Z,7.72
2019-02-21T23:37:13.573Z,7.66
2019-02-21T23:39:44.038Z,7.62
2019-02-21T23:42:14.816Z,7.58
2019-02-21T23:44:45.278Z,7.58
2019-02-21T23:47:15.748Z,7.58
2019-02-21T23:49:46.927Z,7.56
2019-02-21T23:52:17.059Z,7.56
2019-02-21T23:54:47.193Z,7.54
2019-02-21T23:57:17.462Z,7.53
2019-02-21T23:59:47.695Z,7.50
